Heinz Schepers — V2OM7 — position and weather

sailwx.info

Track history (hours):
 
Tides and Currents Weather Stations Pressure Air Temp Water Temp Dewpoint Dewpoint Depression Visibility Wind Speed Wind Dir Waves Ship Positions

Heinz Schepers

Last reported at 2014-Dec-23 01:32 UTC. Time now 2014-Dec-23 01:38 UTC.
Position N 34°40' E 033°04'.

Length 101 m; draft 6.4 m.

Type: Cargo ship. MMSI: 304596000.

Date/timePositionNaut miles runAvg speedWind from/ knotsBaromVisibWave heightAir tempDewpointWater temp
2014-Dec-23 01:32N 34°40' E 033°04'0 0.1
2014-Dec-23 00:32N 34°40' E 033°04'0 0.0
2014-Dec-22 23:32N 34°40' E 033°04'0 0.2
2014-Dec-22 22:33N 34°40' E 033°04'1010.4
2014-Dec-22 21:33N 34°31' E 032°57'1414.0
2014-Dec-22 20:33N 34°35' E 032°41'1413.9
2014-Dec-22 19:34N 34°39' E 032°24'31512.8
2014-Dec-21 19:04N 37°20' E 026°50'714.3
2014-Dec-21 18:33N 37°26' E 026°45'12714.0
2014-Dec-21 09:29N 38°38' E 024°33'  
2014-Dec-18 15:14N 40°37' E 022°56'23312.3
2014-Dec-17 20:16N 37°47' E 026°20'2814.1
2014-Dec-17 18:17N 37°27' E 026°45'31914.0
2014-Dec-16 19:28N 34°40' E 032°21'1314.2
2014-Dec-16 18:33N 34°36' E 032°36'1414.1
2014-Dec-16 17:33N 34°33' E 032°53'1010.3
2014-Dec-16 16:34N 34°38' E 033°03'2 2.2
2014-Dec-16 15:31N 34°39' E 033°01'0 0.0
2014-Dec-16 14:31N 34°39' E 033°01'0 0.0
2014-Dec-16 13:34N 34°39' E 033°01'0 0.0
2014-Dec-16 12:33N 34°39' E 033°01'0 0.0
2014-Dec-16 11:33N 34°39' E 033°01'0 0.0
2014-Dec-16 10:33N 34°39' E 033°01'0 0.0
2014-Dec-16 09:33N 34°39' E 033°01'0 0.0
2014-Dec-16 08:33N 34°39' E 033°01'0 0.0
2014-Dec-16 07:33N 34°39' E 033°01'0 0.0
2014-Dec-16 06:33N 34°39' E 033°01'0 0.0
2014-Dec-16 05:33N 34°39' E 033°01'0 0.2
2014-Dec-16 04:33N 34°39' E 033°01'5 4.6
2014-Dec-16 03:32N 34°36' E 033°06'6 5.8
2014-Dec-16 02:32N 34°31' E 033°05'1313.0
2014-Dec-16 01:33N 34°33' E 032°50'1514.0
2014-Dec-16 00:31N 34°37' E 032°33'1111.7
2014-Dec-15 23:33N 34°41' E 032°20'31412.5
2014-Dec-14 22:29N 37°23' E 026°48'1613.5
2014-Dec-14 21:16N 37°36' E 026°36'1213.3
2014-Dec-14 20:22N 37°45' E 026°26'1113.5
2014-Dec-14 19:33N 37°50' E 026°14'1513.6
2014-Dec-14 18:29N 37°58' E 025°58'1213.0
2014-Dec-14 17:33N 38°04' E 025°45'1512.6
2014-Dec-14 16:23N 38°12' E 025°29'1313.2
2014-Dec-14 15:25N 38°18' E 025°15'1213.4
2014-Dec-14 14:31N 38°24' E 025°02'1413.4
2014-Dec-14 13:28N 38°32' E 024°47'  
Track history (hours):
 
Tides and Currents Weather Stations Pressure Air Temp Water Temp Dewpoint Dewpoint Depression Visibility Wind Speed Wind Dir Waves Ship Positions

Heinz Schepers

Last reported at 2014-Dec-23 01:32 UTC. Time now 2014-Dec-23 01:38 UTC.
Position N 34°40' E 033°04'.

Length 101 m; draft 6.4 m.

Type: Cargo ship. MMSI: 304596000.

Date/timePositionNaut miles runAvg speedWind from/ knotsBaromVisibWave heightAir tempDewpointWater temp
2014-Dec-23 01:32N 34°40' E 033°04'0 0.1
2014-Dec-23 00:32N 34°40' E 033°04'0 0.0
2014-Dec-22 23:32N 34°40' E 033°04'0 0.2
2014-Dec-22 22:33N 34°40' E 033°04'1010.4
2014-Dec-22 21:33N 34°31' E 032°57'1414.0
2014-Dec-22 20:33N 34°35' E 032°41'1413.9
2014-Dec-22 19:34N 34°39' E 032°24'31512.8
2014-Dec-21 19:04N 37°20' E 026°50'714.3
2014-Dec-21 18:33N 37°26' E 026°45'12714.0
2014-Dec-21 09:29N 38°38' E 024°33'  
2014-Dec-18 15:14N 40°37' E 022°56'23312.3
2014-Dec-17 20:16N 37°47' E 026°20'2814.1
2014-Dec-17 18:17N 37°27' E 026°45'31914.0
2014-Dec-16 19:28N 34°40' E 032°21'1314.2
2014-Dec-16 18:33N 34°36' E 032°36'1414.1
2014-Dec-16 17:33N 34°33' E 032°53'1010.3
2014-Dec-16 16:34N 34°38' E 033°03'2 2.2
2014-Dec-16 15:31N 34°39' E 033°01'0 0.0
2014-Dec-16 14:31N 34°39' E 033°01'0 0.0
2014-Dec-16 13:34N 34°39' E 033°01'0 0.0
2014-Dec-16 12:33N 34°39' E 033°01'0 0.0
2014-Dec-16 11:33N 34°39' E 033°01'0 0.0
2014-Dec-16 10:33N 34°39' E 033°01'0 0.0
2014-Dec-16 09:33N 34°39' E 033°01'0 0.0
2014-Dec-16 08:33N 34°39' E 033°01'0 0.0
2014-Dec-16 07:33N 34°39' E 033°01'0 0.0
2014-Dec-16 06:33N 34°39' E 033°01'0 0.0
2014-Dec-16 05:33N 34°39' E 033°01'0 0.2
2014-Dec-16 04:33N 34°39' E 033°01'5 4.6
2014-Dec-16 03:32N 34°36' E 033°06'6 5.8
2014-Dec-16 02:32N 34°31' E 033°05'1313.0
2014-Dec-16 01:33N 34°33' E 032°50'1514.0
2014-Dec-16 00:31N 34°37' E 032°33'1111.7
2014-Dec-15 23:33N 34°41' E 032°20'31412.5
2014-Dec-14 22:29N 37°23' E 026°48'1613.5
2014-Dec-14 21:16N 37°36' E 026°36'1213.3
2014-Dec-14 20:22N 37°45' E 026°26'1113.5
2014-Dec-14 19:33N 37°50' E 026°14'1513.6
2014-Dec-14 18:29N 37°58' E 025°58'1213.0
2014-Dec-14 17:33N 38°04' E 025°45'1512.6
2014-Dec-14 16:23N 38°12' E 025°29'1313.2
2014-Dec-14 15:25N 38°18' E 025°15'1213.4
2014-Dec-14 14:31N 38°24' E 025°02'1413.4
2014-Dec-14 13:28N 38°32' E 024°47'  

Dump ship's entire track history